Time;durP1;ratioP1;P1;durP2;ratioP2;P2;SDS_P1;SDS_P2;PMS_P1;PMS_P2;Temp;Humidity;BMP_temperature;BMP_pressure;BME280_temperature;BME280_humidity;BME280_pressure;Samples;Min_cycle;Max_cycle;Signal;HPM_P1;HPM_P2
2022/04/05 00:00:53;;;;;;;6.53;5.95;;;2.60;99.90;;;;;;5084485;27;21019;-63
2022/04/05 00:03:32;;;;;;;6.00;5.57;;;2.70;99.90;;;;;;5084701;27;20569;-63
2022/04/05 00:06:12;;;;;;;5.65;5.25;;;2.70;99.90;;;;;;5146217;27;20530;-63
2022/04/05 00:08:53;;;;;;;6.00;5.53;;;2.70;99.90;;;;;;5085487;27;20551;-63
2022/04/05 00:11:32;;;;;;;5.93;5.50;;;2.70;99.90;;;;;;5106114;27;20526;-64
2022/04/05 00:14:12;;;;;;;5.35;4.95;;;2.80;99.90;;;;;;5085420;27;20541;-63
2022/04/05 00:16:51;;;;;;;5.80;5.30;;;2.90;99.90;;;;;;5147309;27;21079;-62
2022/04/05 00:19:31;;;;;;;6.40;5.93;;;2.90;99.90;;;;;;5085082;28;20640;-63
2022/04/05 00:22:11;;;;;;;5.45;5.13;;;2.90;99.90;;;;;;5086043;28;20535;-63
2022/04/05 00:24:51;;;;;;;6.47;5.75;;;2.90;99.90;;;;;;5146469;27;20530;-63
2022/04/05 00:27:31;;;;;;;5.60;5.20;;;2.90;99.90;;;;;;5105896;27;20538;-64
2022/04/05 00:30:12;;;;;;;5.85;5.45;;;2.90;99.90;;;;;;5084795;27;20581;-63
2022/04/05 00:32:52;;;;;;;5.95;5.45;;;2.90;99.90;;;;;;5105711;27;20567;-64
2022/04/05 00:35:32;;;;;;;6.28;5.78;;;2.90;99.90;;;;;;5084799;27;20539;-62
2022/04/05 00:38:12;;;;;;;5.85;5.45;;;2.90;99.90;;;;;;5085677;27;20573;-63
2022/04/05 00:40:51;;;;;;;5.95;5.53;;;2.90;99.90;;;;;;5105184;27;21101;-62
2022/04/05 00:43:31;;;;;;;5.07;4.68;;;2.90;99.90;;;;;;5085336;27;20539;-62
2022/04/05 00:46:11;;;;;;;5.53;5.20;;;2.90;99.90;;;;;;5085449;27;20543;-63
2022/04/05 00:48:55;;;;;;;6.40;5.80;;;2.90;99.90;;;;;;5146808;27;20666;-64
2022/04/05 00:51:34;;;;;;;5.53;5.13;;;2.90;99.90;;;;;;5085478;27;20542;-62
2022/04/05 00:54:14;;;;;;;6.03;5.63;;;2.90;99.90;;;;;;5085320;27;20553;-62
2022/04/05 00:56:56;;;;;;;6.55;6.07;;;2.90;99.90;;;;;;5086049;27;20978;-63
2022/04/05 00:59:41;;;;;;;5.38;5.03;;;2.90;99.90;;;;;;5083066;27;21035;-63
2022/04/05 01:02:22;;;;;;;5.90;5.50;;;3.00;99.90;;;;;;5106659;27;20545;-64
2022/04/05 01:05:02;;;;;;;6.38;5.97;;;3.00;99.90;;;;;;5126199;27;20565;-64
2022/04/05 01:07:45;;;;;;;5.93;5.43;;;3.00;99.90;;;;;;5086738;27;20758;-62
2022/04/05 01:10:25;;;;;;;6.63;6.15;;;3.00;99.90;;;;;;5105714;27;20542;-62
2022/04/05 01:13:04;;;;;;;5.50;5.13;;;3.00;99.90;;;;;;5086143;27;20563;-63
2022/04/05 01:15:44;;;;;;;5.55;5.15;;;3.00;99.90;;;;;;5085863;27;20536;-64
2022/04/05 01:18:24;;;;;;;6.82;6.32;;;3.00;99.90;;;;;;5086610;27;20562;-63
2022/04/05 01:21:04;;;;;;;5.68;5.28;;;3.00;99.90;;;;;;5106080;27;20567;-63
2022/04/05 01:23:59;;;;;;;6.70;6.20;;;3.00;99.90;;;;;;5106558;27;20677;-62
2022/04/05 01:26:41;;;;;;;5.70;5.30;;;3.10;99.90;;;;;;5085760;27;20554;-62
2022/04/05 01:29:22;;;;;;;6.25;5.85;;;3.00;99.90;;;;;;5085587;27;20632;-65
2022/04/05 01:32:03;;;;;;;6.07;5.68;;;3.10;99.90;;;;;;5086377;27;20547;-63
2022/04/05 01:34:43;;;;;;;6.60;6.00;;;3.10;99.90;;;;;;5086216;27;20551;-63
2022/04/05 01:37:23;;;;;;;5.35;4.95;;;3.10;99.90;;;;;;5126655;27;20532;-63
2022/04/05 01:40:03;;;;;;;6.63;6.20;;;3.10;99.90;;;;;;5105474;27;20570;-63
2022/04/05 01:42:43;;;;;;;6.45;5.95;;;3.10;99.90;;;;;;5127406;27;20537;-63
2022/04/05 01:45:23;;;;;;;5.47;5.07;;;3.10;99.90;;;;;;5085128;28;21091;-64
2022/04/05 01:48:02;;;;;;;5.78;5.38;;;3.00;99.90;;;;;;5085832;27;21165;-64
2022/04/05 01:50:44;;;;;;;6.22;5.60;;;3.10;99.90;;;;;;5085242;27;20543;-63
2022/04/05 01:53:24;;;;;;;5.85;5.40;;;3.10;99.90;;;;;;5123335;27;21907;-62
2022/04/05 01:56:04;;;;;;;6.05;5.63;;;3.00;99.90;;;;;;5085765;28;20539;-61
2022/04/05 01:58:43;;;;;;;6.57;6.07;;;3.00;99.90;;;;;;5104552;27;20561;-63
2022/04/05 02:01:24;;;;;;;6.25;5.70;;;3.00;99.90;;;;;;5105732;27;20900;-63
2022/04/05 02:04:03;;;;;;;6.15;5.75;;;3.00;99.90;;;;;;5126189;27;20544;-64
2022/04/05 02:06:44;;;;;;;5.82;5.32;;;3.00;99.90;;;;;;5105834;27;20573;-62
2022/04/05 02:09:23;;;;;;;5.68;5.28;;;3.00;99.90;;;;;;5167320;27;20545;-61
2022/04/05 02:12:03;;;;;;;6.28;5.78;;;3.00;99.90;;;;;;5085982;28;20543;-63
2022/04/05 02:14:42;;;;;;;5.75;5.35;;;3.00;99.90;;;;;;5147157;27;20538;-63
2022/04/05 02:17:22;;;;;;;5.13;4.72;;;2.90;99.90;;;;;;5126700;27;20544;-62
2022/04/05 02:20:02;;;;;;;5.20;4.90;;;3.00;99.90;;;;;;5085201;27;20568;-63
2022/04/05 02:22:42;;;;;;;5.50;5.07;;;3.00;99.90;;;;;;5106023;27;20977;-63
2022/04/05 02:25:21;;;;;;;6.07;5.40;;;3.00;99.90;;;;;;5085170;27;21157;-63
2022/04/05 02:28:02;;;;;;;6.25;5.65;;;3.00;99.90;;;;;;5086296;27;20548;-64
2022/04/05 02:30:42;;;;;;;5.10;4.70;;;3.00;99.90;;;;;;5085008;27;20547;-62
2022/04/05 02:33:21;;;;;;;5.57;5.05;;;3.00;99.90;;;;;;5086100;27;20543;-63
2022/04/05 02:36:03;;;;;;;5.15;4.85;;;3.00;99.90;;;;;;5085932;27;21072;-63
2022/04/05 02:38:42;;;;;;;5.55;5.15;;;3.00;99.90;;;;;;5085969;27;20589;-63
2022/04/05 02:41:22;;;;;;;5.60;5.20;;;3.00;99.90;;;;;;5085946;27;20579;-65
2022/04/05 02:44:02;;;;;;;5.20;4.80;;;3.10;99.90;;;;;;5106021;27;21070;-63
2022/04/05 02:46:42;;;;;;;5.20;4.80;;;3.10;99.90;;;;;;5126681;27;20675;-63
2022/04/05 02:49:22;;;;;;;4.80;4.43;;;3.10;99.90;;;;;;5085404;27;20562;-63
2022/04/05 02:52:04;;;;;;;5.00;4.70;;;3.10;99.90;;;;;;5127266;27;20532;-63
2022/04/05 02:54:43;;;;;;;5.88;5.07;;;3.20;99.90;;;;;;5106299;27;20611;-64
2022/04/05 02:57:23;;;;;;;5.15;4.82;;;3.10;99.90;;;;;;5086582;27;20561;-64
2022/04/05 03:00:03;;;;;;;5.22;4.82;;;3.10;99.90;;;;;;5084330;27;20917;-63
2022/04/05 03:02:43;;;;;;;5.85;5.45;;;3.10;99.90;;;;;;5086241;27;20544;-63
2022/04/05 03:05:23;;;;;;;5.53;5.13;;;3.10;99.90;;;;;;5085655;28;21096;-64
2022/04/05 03:08:03;;;;;;;5.40;5.00;;;3.00;99.90;;;;;;5086443;27;20539;-62
2022/04/05 03:10:43;;;;;;;4.45;4.15;;;2.90;99.90;;;;;;5085460;27;20546;-63
2022/04/05 03:13:23;;;;;;;5.65;5.25;;;2.90;99.90;;;;;;5086005;27;20539;-65
2022/04/05 03:16:03;;;;;;;4.75;4.40;;;2.90;99.90;;;;;;5085571;27;20560;-63
2022/04/05 03:18:45;;;;;;;5.97;5.38;;;2.90;99.90;;;;;;5086188;27;20562;-64
2022/04/05 03:21:24;;;;;;;4.68;4.38;;;2.80;99.90;;;;;;5106026;27;21526;-63
2022/04/05 03:24:05;;;;;;;5.57;5.22;;;2.80;99.90;;;;;;5147369;27;20534;-62
2022/04/05 03:26:44;;;;;;;5.18;4.78;;;2.70;99.90;;;;;;5085818;27;20564;-62
2022/04/05 03:29:24;;;;;;;4.90;4.60;;;2.70;99.90;;;;;;5146236;27;20671;-63
2022/04/05 03:32:04;;;;;;;5.75;5.35;;;2.60;99.90;;;;;;5084962;27;20566;-65
2022/04/05 03:34:43;;;;;;;5.13;4.72;;;2.60;99.90;;;;;;5085573;27;21007;-63
2022/04/05 03:37:25;;;;;;;4.80;4.50;;;2.60;99.90;;;;;;5085395;27;21047;-64
2022/04/05 03:40:06;;;;;;;5.38;4.97;;;2.50;99.90;;;;;;5083763;27;20587;-63
2022/04/05 03:42:46;;;;;;;5.18;4.80;;;2.50;99.90;;;;;;5085648;28;20539;-65
2022/04/05 03:45:27;;;;;;;5.25;4.95;;;2.50;99.90;;;;;;5084480;27;20573;-64
2022/04/05 03:48:06;;;;;;;5.25;4.85;;;2.40;99.90;;;;;;5085067;27;20565;-63
2022/04/05 03:50:46;;;;;;;5.25;4.85;;;2.40;99.90;;;;;;5084848;27;20624;-63
2022/04/05 03:53:25;;;;;;;5.45;5.15;;;2.40;99.90;;;;;;5084887;27;20539;-63
2022/04/05 03:56:09;;;;;;;5.32;4.97;;;2.40;99.90;;;;;;5084703;27;20555;-63
2022/04/05 03:58:49;;;;;;;5.80;5.30;;;2.30;99.90;;;;;;5103486;27;20583;-63
2022/04/05 04:01:28;;;;;;;5.53;5.15;;;2.30;99.90;;;;;;5146032;27;20542;-63
2022/04/05 04:04:08;;;;;;;6.55;6.00;;;2.30;99.90;;;;;;5105338;27;20545;-63
2022/04/05 04:06:48;;;;;;;5.65;5.25;;;2.20;99.90;;;;;;5084684;28;20564;-63
2022/04/05 04:09:27;;;;;;;5.53;5.10;;;2.20;99.90;;;;;;5104520;27;20630;-63
2022/04/05 04:12:09;;;;;;;4.90;4.50;;;2.20;99.90;;;;;;5146338;27;20546;-63
2022/04/05 04:14:49;;;;;;;5.00;4.70;;;2.20;99.90;;;;;;5085166;28;20999;-63
2022/04/05 04:17:29;;;;;;;5.68;5.28;;;2.20;99.90;;;;;;5084460;27;20535;-63
2022/04/05 04:20:10;;;;;;;5.90;5.40;;;2.20;99.90;;;;;;5105604;27;20554;-64
2022/04/05 04:22:50;;;;;;;5.57;5.18;;;2.10;99.90;;;;;;5084229;28;20572;-63
2022/04/05 04:25:30;;;;;;;4.93;4.63;;;2.10;99.90;;;;;;5083807;27;21014;-63
2022/04/05 04:28:11;;;;;;;5.38;4.95;;;2.10;99.90;;;;;;5102731;27;20550;-64
2022/04/05 04:30:51;;;;;;;5.85;5.45;;;2.10;99.90;;;;;;5083576;27;20592;-63
2022/04/05 04:33:31;;;;;;;5.13;4.82;;;2.10;99.90;;;;;;5084312;27;20544;-63
2022/04/05 04:36:11;;;;;;;5.15;4.75;;;2.00;99.90;;;;;;5084305;27;20547;-63
2022/04/05 04:38:52;;;;;;;4.93;4.63;;;2.00;99.90;;;;;;5076912;27;20579;-63
2022/04/05 04:41:32;;;;;;;5.25;4.95;;;2.00;99.90;;;;;;5116016;27;20533;-65
2022/04/05 04:44:12;;;;;;;4.68;4.38;;;2.00;99.90;;;;;;5146754;27;20542;-63
2022/04/05 04:46:51;;;;;;;4.90;4.60;;;2.00;99.90;;;;;;5083792;27;20576;-63
2022/04/05 04:49:31;;;;;;;6.00;5.60;;;2.00;99.90;;;;;;5104347;27;21097;-63
2022/04/05 04:52:11;;;;;;;4.97;4.63;;;2.00;99.90;;;;;;5104916;27;20546;-63
2022/04/05 04:54:51;;;;;;;5.70;5.20;;;2.00;99.90;;;;;;5084768;27;20558;-63
2022/04/05 04:57:31;;;;;;;5.70;5.20;;;2.00;99.90;;;;;;5084907;27;20545;-63
2022/04/05 05:00:12;;;;;;;6.03;5.53;;;2.10;99.90;;;;;;5104545;27;20546;-64
2022/04/05 05:02:52;;;;;;;5.38;4.97;;;2.10;99.90;;;;;;5126026;27;20536;-63
2022/04/05 05:05:32;;;;;;;5.43;4.95;;;2.10;99.90;;;;;;5105181;27;20538;-63
2022/04/05 05:08:12;;;;;;;8.48;5.57;;;2.10;99.90;;;;;;5105187;27;20896;-63
2022/04/05 05:10:52;;;;;;;5.97;5.47;;;2.10;99.90;;;;;;5083952;27;20554;-63
2022/04/05 05:13:32;;;;;;;5.45;5.05;;;2.10;99.90;;;;;;5084971;27;21173;-63
2022/04/05 05:16:11;;;;;;;5.32;4.93;;;2.20;99.90;;;;;;5104543;27;20674;-64
2022/04/05 05:18:51;;;;;;;5.95;5.30;;;2.20;99.90;;;;;;5084927;27;20883;-64
2022/04/05 05:21:31;;;;;;;5.85;5.32;;;2.20;99.90;;;;;;5146028;27;20898;-63
2022/04/05 05:24:11;;;;;;;5.28;4.88;;;2.30;99.90;;;;;;5146296;27;20535;-63
2022/04/05 05:26:51;;;;;;;4.90;4.50;;;2.20;99.90;;;;;;5083251;27;21133;-63
2022/04/05 05:29:30;;;;;;;6.65;6.15;;;2.30;99.90;;;;;;5069807;27;20476;-62
2022/04/05 05:32:10;;;;;;;5.05;4.20;;;2.30;99.90;;;;;;5084557;27;20550;-62
2022/04/05 05:34:50;;;;;;;5.43;5.03;;;2.40;99.90;;;;;;5083767;27;20578;-62
2022/04/05 05:37:30;;;;;;;5.45;5.03;;;2.40;99.90;;;;;;5145820;27;21260;-62
2022/04/05 05:40:11;;;;;;;6.13;5.53;;;2.50;99.90;;;;;;5124593;27;20552;-63
2022/04/05 05:42:57;;;;;;;5.57;5.18;;;2.50;99.90;;;;;;5126571;22;20595;-59
2022/04/05 05:45:37;;;;;;;7.10;5.43;;;2.50;99.90;;;;;;5084292;28;20561;-60
2022/04/05 05:48:17;;;;;;;5.70;5.30;;;2.50;99.90;;;;;;5146444;27;21065;-58
2022/04/05 05:50:57;;;;;;;5.32;4.93;;;2.50;99.90;;;;;;5083753;27;21129;-59
2022/04/05 05:53:37;;;;;;;7.65;7.05;;;2.50;99.90;;;;;;5125668;27;20671;-59
2022/04/05 05:56:17;;;;;;;5.82;4.90;;;2.50;99.90;;;;;;5140840;27;20579;-59
2022/04/05 05:58:56;;;;;;;6.82;6.25;;;2.60;99.90;;;;;;5074371;27;20574;-59
2022/04/05 06:01:36;;;;;;;8.82;8.02;;;2.60;99.90;;;;;;5081281;27;20612;-59
2022/04/05 06:04:16;;;;;;;6.72;6.13;;;2.60;99.90;;;;;;5123896;27;20563;-58
2022/04/05 06:06:56;;;;;;;7.28;6.70;;;2.60;99.90;;;;;;5145077;27;20542;-59
2022/04/05 06:09:36;;;;;;;6.90;5.85;;;2.70;99.90;;;;;;5124601;27;20568;-62
2022/04/05 06:12:15;;;;;;;10.77;9.85;;;2.70;99.90;;;;;;5125072;27;20683;-61
2022/04/05 06:14:55;;;;;;;7.30;6.65;;;2.70;99.90;;;;;;5145839;27;21386;-61
2022/04/05 06:17:36;;;;;;;11.38;10.43;;;2.80;99.90;;;;;;5104345;27;20549;-60
2022/04/05 06:20:17;;;;;;;8.35;7.55;;;2.80;99.90;;;;;;5145029;27;20554;-59
2022/04/05 06:22:58;;;;;;;8.70;7.82;;;2.80;99.90;;;;;;5104877;27;20553;-60
2022/04/05 06:25:39;;;;;;;7.00;6.50;;;2.80;99.90;;;;;;5104703;27;20534;-61
2022/04/05 06:28:18;;;;;;;12.00;11.00;;;2.80;99.90;;;;;;5146401;27;20550;-60
2022/04/05 06:30:58;;;;;;;10.43;8.02;;;2.80;99.90;;;;;;5145674;27;20531;-60
2022/04/05 06:33:37;;;;;;;8.77;7.95;;;2.90;99.90;;;;;;5105250;27;20686;-59
2022/04/05 06:36:17;;;;;;;13.02;11.80;;;2.90;99.90;;;;;;5083767;27;20536;-59
2022/04/05 06:38:57;;;;;;;5.75;5.35;;;2.90;99.90;;;;;;5145849;27;20556;-60
2022/04/05 06:41:37;;;;;;;8.07;7.40;;;3.00;99.90;;;;;;5125366;27;20532;-60
2022/04/05 06:44:17;;;;;;;8.88;7.65;;;3.00;99.90;;;;;;5084738;28;21067;-60
2022/04/05 06:46:56;;;;;;;9.07;7.80;;;3.10;99.90;;;;;;5146176;27;21145;-59
2022/04/05 06:49:36;;;;;;;6.38;5.93;;;3.20;99.90;;;;;;5104486;27;20547;-59
2022/04/05 06:52:16;;;;;;;6.60;6.00;;;3.30;99.90;;;;;;5084707;27;20561;-60
2022/04/05 06:54:56;;;;;;;6.03;5.63;;;3.30;99.90;;;;;;5146522;27;20538;-59
2022/04/05 06:57:36;;;;;;;5.88;5.47;;;3.30;99.90;;;;;;5125834;27;20582;-59
2022/04/05 07:00:18;;;;;;;39.42;11.88;;;3.40;99.90;;;;;;5084699;28;20671;-58
2022/04/05 07:02:58;;;;;;;6.70;6.05;;;3.50;99.90;;;;;;5085432;27;20573;-59
2022/04/05 07:05:37;;;;;;;7.72;7.13;;;3.60;99.90;;;;;;5146220;27;20541;-60
2022/04/05 07:08:17;;;;;;;7.95;7.25;;;3.70;99.90;;;;;;5125889;27;20900;-59
2022/04/05 07:10:57;;;;;;;18.00;12.20;;;3.70;99.90;;;;;;5084577;27;21160;-60
2022/04/05 07:13:36;;;;;;;7.13;6.43;;;3.80;99.90;;;;;;5084464;27;20559;-59
2022/04/05 07:16:16;;;;;;;8.38;7.65;;;3.90;99.90;;;;;;5105186;27;20541;-59
2022/04/05 07:18:56;;;;;;;20.02;11.00;;;4.00;99.90;;;;;;5125538;27;20919;-59
2022/04/05 07:21:36;;;;;;;7.18;6.55;;;4.10;99.90;;;;;;5084210;27;20613;-59
2022/04/05 07:24:16;;;;;;;10.02;9.07;;;4.00;99.90;;;;;;5084575;27;20964;-60
2022/04/05 07:26:55;;;;;;;8.43;7.55;;;4.10;99.90;;;;;;5084394;27;20560;-59
2022/04/05 07:29:35;;;;;;;6.75;6.18;;;4.10;99.90;;;;;;5084527;27;20556;-59
2022/04/05 07:32:15;;;;;;;7.78;6.90;;;4.10;99.90;;;;;;5125834;27;21084;-58
2022/04/05 07:34:56;;;;;;;18.35;6.75;;;4.20;99.90;;;;;;5105036;27;20545;-59
2022/04/05 07:37:35;;;;;;;8.25;7.00;;;4.20;99.90;;;;;;5084085;27;20562;-59
2022/04/05 07:40:15;;;;;;;5.15;4.75;;;4.30;99.90;;;;;;5157088;27;20545;-59
2022/04/05 07:42:55;;;;;;;15.05;8.32;;;4.30;99.90;;;;;;5105378;27;21171;-60
2022/04/05 07:45:34;;;;;;;6.35;4.93;;;4.30;99.90;;;;;;5084944;27;20623;-59
2022/04/05 07:48:14;;;;;;;5.28;4.88;;;4.40;99.90;;;;;;5146187;27;20527;-59
2022/04/05 07:50:54;;;;;;;5.88;5.32;;;4.40;99.90;;;;;;5125053;27;20671;-59
2022/04/05 07:53:34;;;;;;;5.93;4.43;;;4.50;99.90;;;;;;5104810;27;20685;-59
2022/04/05 07:56:14;;;;;;;4.90;4.53;;;4.50;99.90;;;;;;5125548;27;20536;-59
2022/04/05 07:58:53;;;;;;;4.93;4.63;;;4.50;99.90;;;;;;5144529;27;20576;-59
2022/04/05 08:01:33;;;;;;;5.53;5.03;;;4.50;99.90;;;;;;5148609;27;21161;-59
2022/04/05 08:04:13;;;;;;;4.85;4.53;;;4.60;99.90;;;;;;5125659;27;20555;-60
2022/04/05 08:06:53;;;;;;;5.47;5.07;;;4.60;99.90;;;;;;5146594;27;20557;-58
2022/04/05 08:09:33;;;;;;;6.75;5.60;;;4.50;99.90;;;;;;5104519;27;20533;-59
2022/04/05 08:12:13;;;;;;;4.60;4.30;;;4.60;99.90;;;;;;5126403;27;20552;-60
2022/04/05 08:14:52;;;;;;;5.43;5.03;;;4.70;99.90;;;;;;5084625;27;20572;-60
2022/04/05 08:17:32;;;;;;;8.68;6.93;;;4.80;99.90;;;;;;5084401;28;20555;-59
2022/04/05 08:20:13;;;;;;;5.30;4.85;;;4.90;99.90;;;;;;5104573;27;20595;-60
2022/04/05 08:22:53;;;;;;;3.72;3.53;;;5.00;99.90;;;;;;5084558;27;20567;-60
2022/04/05 08:25:33;;;;;;;3.75;3.45;;;5.10;99.90;;;;;;5146186;27;20534;-60
2022/04/05 08:28:13;;;;;;;4.40;4.10;;;5.10;99.90;;;;;;5084666;27;21156;-60
2022/04/05 08:30:53;;;;;;;3.97;3.67;;;5.10;99.90;;;;;;5125439;27;20861;-60
2022/04/05 08:33:34;;;;;;;5.28;4.88;;;5.10;99.90;;;;;;5165036;27;20983;-60
2022/04/05 08:36:13;;;;;;;3.65;3.45;;;5.10;99.90;;;;;;5125408;27;20578;-60
2022/04/05 08:38:52;;;;;;;4.43;4.10;;;5.10;99.90;;;;;;5146242;27;20966;-58
2022/04/05 08:41:35;;;;;;;3.72;3.42;;;5.20;99.90;;;;;;5084178;27;21129;-59
2022/04/05 08:44:19;;;;;;;5.40;3.92;;;5.30;99.90;;;;;;5146243;27;20542;-59
2022/04/05 08:47:00;;;;;;;3.63;3.33;;;5.30;99.90;;;;;;5146002;27;21135;-60
2022/04/05 08:49:40;;;;;;;3.70;3.40;;;5.30;99.90;;;;;;5124957;27;20543;-60
2022/04/05 08:52:22;;;;;;;3.83;3.53;;;5.30;99.90;;;;;;5155690;27;20564;-59
2022/04/05 08:55:01;;;;;;;3.10;2.90;;;5.30;99.90;;;;;;5146030;27;20971;-60
2022/04/05 08:57:41;;;;;;;4.10;3.75;;;5.30;99.90;;;;;;5125105;27;20571;-60
2022/04/05 09:00:22;;;;;;;4.85;4.35;;;5.30;99.90;;;;;;5124794;27;20566;-60
2022/04/05 09:03:05;;;;;;;3.00;2.80;;;5.30;99.90;;;;;;5161320;27;20564;-60
2022/04/05 09:05:46;;;;;;;5.38;3.80;;;5.20;99.90;;;;;;5084295;27;20543;-60
2022/04/05 09:08:28;;;;;;;5.07;3.90;;;5.20;99.90;;;;;;5125332;27;21024;-60
2022/04/05 09:11:13;;;;;;;3.60;3.30;;;5.30;99.90;;;;;;5084405;27;20566;-60
2022/04/05 09:14:00;;;;;;;3.55;2.72;;;5.30;99.90;;;;;;5125402;27;20565;-60
2022/04/05 09:16:41;;;;;;;3.08;2.78;;;5.30;99.90;;;;;;5144485;27;21007;-60
2022/04/05 09:19:20;;;;;;;3.28;2.80;;;5.50;99.90;;;;;;5144212;27;20542;-61
2022/04/05 09:22:02;;;;;;;3.90;3.03;;;5.50;99.90;;;;;;5101099;27;20601;-60
2022/04/05 09:24:44;;;;;;;3.55;3.35;;;5.60;99.90;;;;;;5145294;27;20560;-60
2022/04/05 09:27:23;;;;;;;3.40;2.92;;;5.60;99.90;;;;;;5084376;27;20561;-60
2022/04/05 09:30:03;;;;;;;3.05;2.85;;;5.70;99.90;;;;;;5124680;27;20536;-60
2022/04/05 09:32:46;;;;;;;2.78;2.50;;;5.70;99.90;;;;;;5104496;27;20592;-60
2022/04/05 09:35:30;;;;;;;3.78;2.88;;;5.80;99.90;;;;;;5146173;27;20574;-60
2022/04/05 09:38:15;;;;;;;3.33;3.03;;;5.90;99.90;;;;;;5105010;27;21050;-59
2022/04/05 09:41:12;;;;;;;3.38;2.75;;;6.00;99.90;;;;;;5124652;27;20560;-58
2022/04/05 09:43:55;;;;;;;2.85;2.65;;;6.10;99.90;;;;;;5082640;27;20450;-58
2022/04/05 09:46:36;;;;;;;2.63;2.42;;;6.20;99.90;;;;;;5082962;28;20545;-58
2022/04/05 09:49:15;;;;;;;2.58;2.42;;;6.30;99.90;;;;;;5102387;27;21085;-58
2022/04/05 09:51:56;;;;;;;9.23;2.85;;;6.40;99.90;;;;;;5124310;27;20970;-58
2022/04/05 09:54:36;;;;;;;74.53;10.30;;;6.50;99.90;;;;;;5123570;27;21157;-58
2022/04/05 09:57:15;;;;;;;6.85;2.30;;;6.40;99.90;;;;;;5103098;27;20575;-58
2022/04/05 10:00:07;;;;;;;7.45;2.78;;;6.40;99.90;;;;;;5081238;27;20541;-57
2022/04/05 10:03:04;;;;;;;2.40;2.30;;;6.30;99.90;;;;;;5125858;27;20917;-58
2022/04/05 10:05:43;;;;;;;2.33;2.10;;;6.30;99.90;;;;;;5105010;27;20526;-58
2022/04/05 10:08:23;;;;;;;1.77;1.67;;;6.40;99.90;;;;;;5085056;27;20793;-58
2022/04/05 10:11:04;;;;;;;2.28;2.15;;;6.50;99.90;;;;;;5104221;27;20963;-59
2022/04/05 10:13:43;;;;;;;2.22;2.13;;;6.60;99.90;;;;;;5125311;27;20682;-58
2022/04/05 10:16:24;;;;;;;1.98;1.88;;;6.80;99.90;;;;;;5084530;27;20562;-58
2022/04/05 10:19:05;;;;;;;1.85;1.73;;;6.90;99.90;;;;;;5104748;27;20545;-58
2022/04/05 10:21:47;;;;;;;2.38;2.17;;;6.80;99.90;;;;;;5125742;27;20573;-58
2022/04/05 10:24:28;;;;;;;2.55;2.40;;;6.80;99.90;;;;;;5145981;27;20898;-58
2022/04/05 10:27:09;;;;;;;2.40;2.30;;;6.90;99.90;;;;;;5125036;27;20563;-58
2022/04/05 10:29:57;;;;;;;2.88;1.80;;;7.10;99.90;;;;;;5104065;27;20545;-58
2022/04/05 10:32:47;;;;;;;5.82;2.30;;;7.30;99.90;;;;;;5074677;28;20700;-58
2022/04/05 10:35:27;;;;;;;2.30;2.10;;;7.30;99.90;;;;;;5124139;27;21006;-59
2022/04/05 10:38:14;;;;;;;2.08;1.98;;;7.20;99.90;;;;;;5104954;27;21066;-58
2022/04/05 10:41:13;;;;;;;2.10;2.00;;;7.00;99.90;;;;;;5145414;27;20530;-58
2022/04/05 10:44:27;;;;;;;2.80;2.00;;;6.80;99.90;;;;;;5145932;27;21028;-58
2022/04/05 10:47:08;;;;;;;2.20;2.10;;;6.70;99.90;;;;;;5125409;27;21053;-58
2022/04/05 10:49:50;;;;;;;2.38;2.25;;;6.70;99.90;;;;;;5145665;27;20535;-58
2022/04/05 10:52:31;;;;;;;2.20;2.10;;;6.70;99.90;;;;;;5104824;27;21074;-59
2022/04/05 10:55:12;;;;;;;3.65;3.38;;;6.60;99.90;;;;;;5084887;27;20573;-59
2022/04/05 10:58:09;;;;;;;3.88;3.58;;;6.60;99.90;;;;;;5144059;27;21123;-59
2022/04/05 11:00:49;;;;;;;4.20;2.97;;;6.70;99.90;;;;;;5124819;27;20539;-58
2022/04/05 11:03:30;;;;;;;1.90;1.80;;;6.70;99.90;;;;;;5104708;27;20550;-58
2022/04/05 11:06:10;;;;;;;1.80;1.70;;;6.80;99.90;;;;;;5084307;28;20999;-59
2022/04/05 11:08:52;;;;;;;2.10;2.00;;;6.90;99.90;;;;;;5125260;27;20536;-58
2022/04/05 11:11:35;;;;;;;1.85;1.75;;;6.90;99.90;;;;;;5104539;27;20618;-59
2022/04/05 11:14:38;;;;;;;1.80;1.70;;;7.00;99.90;;;;;;5145776;27;20535;-58
2022/04/05 11:17:19;;;;;;;1.48;1.38;;;6.90;99.90;;;;;;5124868;27;20543;-58
2022/04/05 11:20:01;;;;;;;1.67;1.58;;;7.00;99.90;;;;;;5084159;27;20539;-59
2022/04/05 11:22:40;;;;;;;4.07;2.05;;;7.10;99.90;;;;;;5105255;27;20968;-58
2022/04/05 11:25:29;;;;;;;1.70;1.60;;;7.20;99.90;;;;;;5083092;27;20565;-59
2022/04/05 11:28:16;;;;;;;2.25;2.08;;;7.10;99.90;;;;;;5084125;27;20585;-59
2022/04/05 11:31:02;;;;;;;2.38;1.90;;;7.10;99.90;;;;;;5144095;27;20560;-58
2022/04/05 11:33:44;;;;;;;1.60;1.50;;;7.00;99.90;;;;;;5072865;27;20579;-60
2022/04/05 11:36:25;;;;;;;2.03;1.92;;;6.80;99.90;;;;;;5146096;27;20680;-60
2022/04/05 11:39:05;;;;;;;2.55;2.35;;;6.70;99.90;;;;;;5084809;27;20563;-60
2022/04/05 11:41:45;;;;;;;2.88;1.67;;;6.60;99.90;;;;;;5084417;28;21020;-59
2022/04/05 11:44:25;;;;;;;1.90;1.80;;;6.50;99.90;;;;;;5084262;28;20561;-60
2022/04/05 11:47:08;;;;;;;2.70;2.50;;;6.60;99.90;;;;;;5104749;27;20665;-59
2022/04/05 11:49:48;;;;;;;1.90;1.80;;;6.60;99.90;;;;;;5115596;27;20594;-60
2022/04/05 11:52:31;;;;;;;2.08;1.88;;;6.50;99.90;;;;;;5097620;27;20573;-60
2022/04/05 11:58:25;;;;;;;1.73;1.63;;;6.40;99.90;;;;;;5081674;28;21276;-60
2022/04/05 12:01:06;;;;;;;2.00;1.90;;;6.40;99.90;;;;;;5124395;27;20969;-60
2022/04/05 12:03:50;;;;;;;2.35;2.20;;;6.40;99.90;;;;;;5119055;27;20598;-61
2022/04/05 12:06:32;;;;;;;2.10;2.00;;;6.40;99.90;;;;;;5124887;27;20680;-61
2022/04/05 12:09:14;;;;;;;2.45;2.33;;;6.40;99.90;;;;;;5144422;27;20542;-60
2022/04/05 12:11:55;;;;;;;3.30;2.33;;;6.40;99.90;;;;;;5124109;27;20679;-60
2022/04/05 12:14:35;;;;;;;2.90;2.70;;;6.30;99.90;;;;;;5102421;27;20554;-60
2022/04/05 12:17:15;;;;;;;2.30;2.10;;;6.30;99.90;;;;;;5146731;27;20670;-59
2022/04/05 12:19:55;;;;;;;2.58;2.42;;;6.20;99.90;;;;;;5126486;27;21092;-59
2022/04/05 12:22:38;;;;;;;2.95;2.50;;;6.20;99.90;;;;;;5066690;27;2034955;-59
2022/04/05 12:25:18;;;;;;;3.47;2.92;;;6.30;99.90;;;;;;5105889;27;20571;-59
2022/04/05 12:27:58;;;;;;;2.70;2.53;;;6.40;99.90;;;;;;5084997;28;20667;-59
2022/04/05 12:30:38;;;;;;;3.97;2.90;;;6.30;99.90;;;;;;5085312;27;20548;-59
2022/04/05 12:33:25;;;;;;;3.63;3.40;;;6.40;99.90;;;;;;5064630;28;21086;-59
2022/04/05 12:36:04;;;;;;;30.40;7.97;;;6.40;99.90;;;;;;5084803;27;20543;-59
2022/04/05 12:38:44;;;;;;;3.28;2.97;;;6.40;99.90;;;;;;5126006;27;20946;-59
2022/04/05 12:41:24;;;;;;;3.80;3.50;;;6.40;99.90;;;;;;5126464;27;21080;-59
2022/04/05 12:44:11;;;;;;;4.75;4.32;;;6.50;99.90;;;;;;5147641;27;20665;-59
2022/04/05 12:46:54;;;;;;;3.25;3.05;;;6.60;99.90;;;;;;5140304;27;21066;-59
2022/04/05 12:49:37;;;;;;;3.65;3.45;;;6.80;99.90;;;;;;5112206;27;20553;-59
2022/04/05 12:52:20;;;;;;;4.57;4.28;;;6.90;99.90;;;;;;5146811;27;21059;-59
2022/04/05 12:55:00;;;;;;;4.35;4.05;;;7.10;99.90;;;;;;5145053;27;20685;-59
2022/04/05 12:57:41;;;;;;;5.18;3.63;;;7.30;99.90;;;;;;5145600;27;20758;-59
2022/04/05 13:00:22;;;;;;;3.10;2.85;;;7.60;99.90;;;;;;5146855;27;20542;-59
2022/04/05 13:03:10;;;;;;;2.95;2.75;;;7.80;99.90;;;;;;5147932;27;21214;-59
2022/04/05 13:08:52;;;;;;;6.35;3.22;;;7.90;99.90;;;;;;5105766;27;20630;-59
2022/04/05 13:11:32;;;;;;;7.68;3.90;;;7.70;99.90;;;;;;5133518;27;20550;-59
2022/04/05 13:14:16;;;;;;;4.65;3.55;;;7.50;99.90;;;;;;5146966;27;21130;-59
2022/04/05 13:17:02;;;;;;;4.05;3.47;;;7.40;99.90;;;;;;5106224;27;20553;-59
2022/04/05 13:19:54;;;;;;;4.78;2.95;;;7.20;99.90;;;;;;5085106;27;20587;-59
2022/04/05 13:22:35;;;;;;;19.35;12.55;;;7.10;99.90;;;;;;5100671;27;21120;-59
2022/04/05 13:25:14;;;;;;;20.98;18.73;;;7.20;99.90;;;;;;5070254;28;20945;-58
2022/04/05 13:28:01;;;;;;;10.52;9.80;;;7.20;99.90;;;;;;5138025;27;20667;-59
2022/04/05 13:30:44;;;;;;;19.15;17.58;;;7.20;99.90;;;;;;5084337;28;20695;-59
2022/04/05 13:33:23;;;;;;;6.47;5.45;;;7.20;99.90;;;;;;5087936;27;20559;-59
2022/04/05 13:36:03;;;;;;;12.85;6.40;;;7.10;99.90;;;;;;5106464;27;21081;-58
2022/04/05 13:38:43;;;;;;;20.45;6.68;;;7.10;99.90;;;;;;5085632;27;20577;-59
2022/04/05 13:41:23;;;;;;;4.35;4.05;;;7.10;99.90;;;;;;5125830;27;20548;-59
2022/04/05 13:44:04;;;;;;;3.22;3.03;;;7.20;99.90;;;;;;5085798;27;20573;-59
2022/04/05 13:46:44;;;;;;;3.63;3.08;;;7.20;99.90;;;;;;5147183;27;20543;-59
2022/04/05 13:49:24;;;;;;;2.85;2.65;;;7.10;99.90;;;;;;5147204;27;20535;-59
2022/04/05 13:52:05;;;;;;;3.33;3.13;;;7.10;99.90;;;;;;5119375;27;20576;-59
2022/04/05 13:54:43;;;;;;;4.00;3.60;;;6.90;99.90;;;;;;5105473;27;20538;-59
2022/04/05 13:57:23;;;;;;;4.68;4.28;;;6.80;99.90;;;;;;5126557;27;20659;-59
2022/04/05 14:00:04;;;;;;;6.78;6.28;;;6.80;99.90;;;;;;5146799;27;20867;-59
2022/04/05 14:02:43;;;;;;;4.55;4.25;;;6.80;99.90;;;;;;5159888;27;20574;-59
2022/04/05 14:05:23;;;;;;;3.67;3.00;;;6.80;99.90;;;;;;5147602;27;20542;-59
2022/04/05 14:08:03;;;;;;;3.97;3.28;;;6.80;99.90;;;;;;5126511;27;21220;-59
2022/04/05 14:10:43;;;;;;;9.68;4.07;;;6.80;99.90;;;;;;5147034;27;20599;-59
2022/04/05 14:13:22;;;;;;;14.68;4.57;;;6.80;99.90;;;;;;5105087;27;20557;-59